Time;durP1;ratioP1;P1;durP2;ratioP2;P2;SDS_P1;SDS_P2;PMS_P1;PMS_P2;Temp;Humidity;BMP_temperature;BMP_pressure;BME280_temperature;BME280_humidity;BME280_pressure;Samples;Min_cycle;Max_cycle;Signal;HPM_P1;HPM_P2
2021/05/25 00:00:24;;;;;;;3.55;1.25;;;;;;;13.53;72.24;100126.22;5020897;28;20073;-77
2021/05/25 00:02:50;;;;;;;3.10;0.80;;;;;;;13.37;73.68;100131.03;5021877;28;20124;-77
2021/05/25 00:05:19;;;;;;;2.22;0.80;;;;;;;13.34;73.94;100121.38;5024497;28;20104;-77
2021/05/25 00:07:45;;;;;;;2.88;0.70;;;;;;;13.32;73.57;100130.25;5024190;28;20488;-76
2021/05/25 00:10:11;;;;;;;2.35;0.80;;;;;;;13.15;74.93;100131.50;5028317;28;20053;-76
2021/05/25 00:12:37;;;;;;;1.90;0.90;;;;;;;13.07;75.93;100135.22;5031010;28;20120;-76
2021/05/25 00:15:06;;;;;;;2.78;0.80;;;;;;;13.00;75.57;100130.97;5021775;28;20121;-76
2021/05/25 00:17:31;;;;;;;2.97;0.80;;;;;;;12.96;75.18;100130.16;5020629;28;20125;-75
2021/05/25 00:19:56;;;;;;;2.47;0.68;;;;;;;12.92;76.00;100115.25;5023727;28;20083;-76
2021/05/25 00:22:22;;;;;;;1.65;0.80;;;;;;;12.93;76.35;100117.00;5021626;28;20096;-76
2021/05/25 00:24:47;;;;;;;3.30;1.00;;;;;;;12.87;76.85;100109.19;5020763;28;20064;-76
2021/05/25 00:27:12;;;;;;;3.70;1.05;;;;;;;12.76;77.93;100106.78;5023812;28;20407;-78
2021/05/25 00:29:38;;;;;;;2.38;1.00;;;;;;;12.66;79.02;100111.41;5021500;28;20358;-76
2021/05/25 00:32:03;;;;;;;2.65;0.95;;;;;;;12.55;78.77;100102.81;5021841;28;20485;-76
2021/05/25 00:34:29;;;;;;;2.13;0.77;;;;;;;12.51;78.98;100095.84;5023569;28;20030;-76
2021/05/25 00:36:54;;;;;;;2.83;1.05;;;;;;;12.48;79.48;100095.91;5042261;28;20095;-76
2021/05/25 00:39:19;;;;;;;3.50;1.30;;;;;;;12.47;80.46;100094.13;5024619;28;20045;-76
2021/05/25 00:41:45;;;;;;;2.13;1.02;;;;;;;12.48;79.58;100082.66;5020736;28;20035;-76
2021/05/25 00:44:10;;;;;;;2.40;0.95;;;;;;;12.52;79.76;100083.47;5023332;28;20064;-76
2021/05/25 00:46:37;;;;;;;3.58;1.30;;;;;;;12.55;79.11;100091.34;5022168;28;20091;-76
2021/05/25 00:49:06;;;;;;;3.05;1.20;;;;;;;12.56;79.18;100088.66;5019468;28;20033;-76
2021/05/25 00:51:33;;;;;;;2.63;1.00;;;;;;;12.63;79.26;100087.63;5022530;28;20475;-75
2021/05/25 00:53:58;;;;;;;4.88;1.35;;;;;;;12.71;79.43;100109.53;5022922;28;20336;-76
2021/05/25 00:56:24;;;;;;;1.92;1.10;;;;;;;12.78;80.89;100133.22;5020683;28;20064;-76
2021/05/25 00:58:51;;;;;;;3.45;1.10;;;;;;;12.75;80.00;100139.44;5022338;28;20029;-76
2021/05/25 01:01:16;;;;;;;5.45;1.23;;;;;;;12.71;79.75;100146.59;5022617;28;20047;-76
2021/05/25 01:03:42;;;;;;;2.47;1.20;;;;;;;12.58;80.72;100145.09;5021120;28;20078;-75
2021/05/25 01:06:07;;;;;;;3.17;1.27;;;;;;;12.69;79.40;100142.22;5022310;28;20034;-76
2021/05/25 01:08:34;;;;;;;3.40;1.20;;;;;;;12.68;80.38;100151.97;5022481;28;20484;-76
2021/05/25 01:11:07;;;;;;;3.33;1.42;;;;;;;12.72;79.98;100148.31;5020574;28;20037;-76
2021/05/25 01:13:44;;;;;;;2.55;1.33;;;;;;;12.74;80.21;100143.00;5020908;28;20034;-75
2021/05/25 01:16:10;;;;;;;4.20;1.30;;;;;;;12.84;78.97;100143.69;5028179;28;20037;-76
2021/05/25 01:18:35;;;;;;;3.55;1.20;;;;;;;12.83;79.29;100133.97;5022394;28;20549;-76
2021/05/25 01:21:01;;;;;;;2.67;1.13;;;;;;;12.87;79.13;100125.94;5019003;28;20042;-76
2021/05/25 01:23:27;;;;;;;2.95;0.95;;;;;;;12.89;78.37;100125.91;5020254;28;20052;-75
2021/05/25 01:25:53;;;;;;;3.35;1.27;;;;;;;12.90;78.08;100112.63;5022515;28;20041;-75
2021/05/25 01:28:21;;;;;;;2.53;1.05;;;;;;;12.95;78.32;100112.53;5020119;28;20030;-75
2021/05/25 01:30:49;;;;;;;3.15;1.15;;;;;;;12.96;77.95;100098.38;5021285;28;20138;-75
2021/05/25 01:33:16;;;;;;;2.60;1.40;;;;;;;13.00;78.83;100109.78;5022140;28;20033;-76
2021/05/25 01:35:41;;;;;;;3.70;1.30;;;;;;;13.09;77.81;100106.91;5026813;28;20042;-76
2021/05/25 01:38:09;;;;;;;3.80;1.38;;;;;;;13.14;78.07;100112.97;5020930;28;20033;-76
2021/05/25 01:40:35;;;;;;;2.20;1.08;;;;;;;13.20;77.26;100111.97;5029346;28;20116;-75
2021/05/25 01:43:02;;;;;;;2.92;1.33;;;;;;;13.19;77.56;100100.50;5021390;28;20051;-76
2021/05/25 01:45:29;;;;;;;2.15;1.10;;;;;;;13.18;77.95;100104.06;5020634;28;20033;-76
2021/05/25 01:47:56;;;;;;;2.38;1.00;;;;;;;13.17;77.65;100115.53;5022432;28;20033;-75
2021/05/25 01:50:25;;;;;;;3.38;1.40;;;;;;;13.14;77.73;100112.97;5023473;28;20033;-76
2021/05/25 01:53:01;;;;;;;2.13;1.08;;;;;;;13.19;76.67;100102.28;5021187;28;20040;-76
2021/05/25 01:55:46;;;;;;;2.72;1.17;;;;;;;13.16;78.27;100111.16;5022443;28;20042;-76
2021/05/25 01:58:24;;;;;;;2.63;1.15;;;;;;;13.21;77.39;100103.97;5024934;28;20099;-76
2021/05/25 02:00:53;;;;;;;2.78;1.20;;;;;;;13.22;77.73;100104.84;5024771;28;20455;-76
2021/05/25 02:03:18;;;;;;;1.98;1.23;;;;;;;13.25;77.66;100116.25;5022154;28;20043;-76
2021/05/25 02:05:47;;;;;;;3.88;1.10;;;;;;;13.24;77.67;100118.94;5020159;28;20121;-76
2021/05/25 02:08:15;;;;;;;3.45;1.23;;;;;;;13.23;77.69;100114.53;5018864;28;20029;-76
2021/05/25 02:10:47;;;;;;;2.80;1.20;;;;;;;13.23;77.91;100118.06;5022189;28;20041;-76
2021/05/25 02:13:16;;;;;;;2.10;1.20;;;;;;;13.27;77.37;100118.91;5021425;28;20053;-75
2021/05/25 02:15:44;;;;;;;2.92;1.27;;;;;;;13.29;77.80;100123.25;5019675;28;20041;-76
2021/05/25 02:18:15;;;;;;;2.08;1.13;;;;;;;13.26;77.51;100118.03;5020848;28;20120;-76
2021/05/25 02:20:42;;;;;;;3.10;1.60;;;;;;;13.30;77.63;100118.81;5021969;28;20108;-77
2021/05/25 02:23:08;;;;;;;3.35;1.50;;;;;;;13.36;77.88;100129.25;5042251;28;20046;-76
2021/05/25 02:25:33;;;;;;;1.83;0.93;;;;;;;13.38;76.93;100117.72;5023308;28;20079;-76
2021/05/25 02:28:00;;;;;;;2.67;1.27;;;;;;;13.36;77.04;100110.72;5018362;28;20034;-77
2021/05/25 02:30:28;;;;;;;2.75;1.45;;;;;;;13.29;77.15;100112.66;5020777;28;20045;-76
2021/05/25 02:32:54;;;;;;;5.15;1.80;;;;;;;13.24;77.68;100117.16;5021925;28;20087;-76
2021/05/25 02:35:20;;;;;;;3.05;1.30;;;;;;;13.18;77.84;100119.97;5019794;28;20385;-76
2021/05/25 02:37:45;;;;;;;3.53;1.17;;;;;;;13.18;77.72;100114.66;5020883;28;20040;-76
2021/05/25 02:40:11;;;;;;;3.28;1.00;;;;;;;13.26;77.37;100109.19;5021662;28;20496;-76
2021/05/25 02:42:37;;;;;;;3.90;1.30;;;;;;;13.27;77.96;100118.91;5019042;28;20034;-76
2021/05/25 02:45:04;;;;;;;3.75;1.20;;;;;;;13.25;78.23;100115.38;5022750;28;20403;-76
2021/05/25 02:47:29;;;;;;;4.22;1.13;;;;;;;13.24;77.84;100118.94;5032282;28;20063;-76
2021/05/25 02:49:54;;;;;;;3.90;1.17;;;;;;;13.25;77.47;100123.31;5025128;28;20044;-76
2021/05/25 02:52:20;;;;;;;3.10;1.10;;;;;;;13.30;77.56;100124.13;5029923;28;20454;-76
2021/05/25 02:54:46;;;;;;;3.22;1.30;;;;;;;13.26;78.29;100122.44;5032973;28;20064;-76
2021/05/25 02:57:11;;;;;;;4.10;1.63;;;;;;;13.27;78.20;100118.91;5024172;28;20025;-76
2021/05/25 02:59:37;;;;;;;4.43;1.83;;;;;;;13.30;78.43;100111.72;5023991;28;20064;-75
2021/05/25 03:02:02;;;;;;;2.85;1.50;;;;;;;13.29;78.76;100107.34;5022813;28;20041;-75
2021/05/25 03:04:28;;;;;;;3.58;1.83;;;;;;;13.28;78.46;100110.03;5025290;28;20037;-75
2021/05/25 03:06:53;;;;;;;3.80;1.80;;;;;;;13.27;78.80;100121.53;5024157;28;20038;-76
2021/05/25 03:09:19;;;;;;;3.40;1.90;;;;;;;13.25;78.91;100123.31;5022694;28;20034;-76
2021/05/25 03:11:44;;;;;;;3.88;2.25;;;;;;;13.29;78.21;100128.56;5027222;28;20038;-76
2021/05/25 03:14:10;;;;;;;4.82;2.58;;;;;;;13.29;79.01;100133.00;5022805;28;20083;-76
2021/05/25 03:16:36;;;;;;;4.93;2.72;;;;;;;13.27;78.86;100133.00;5025220;28;20136;-76
2021/05/25 03:19:02;;;;;;;3.88;2.35;;;;;;;13.27;79.63;100129.50;5023181;28;20034;-76
2021/05/25 03:21:27;;;;;;;4.05;2.20;;;;;;;13.19;79.81;100124.34;5023857;28;20464;-76
2021/05/25 03:23:54;;;;;;;3.47;1.95;;;;;;;13.19;79.47;100127.00;5022406;28;20042;-76
2021/05/25 03:26:20;;;;;;;3.97;2.13;;;;;;;13.12;79.87;100136.84;5024931;28;20037;-76
2021/05/25 03:28:46;;;;;;;6.95;3.72;;;;;;;13.12;80.37;100128.03;5023751;28;20117;-76
2021/05/25 03:31:11;;;;;;;4.10;2.40;;;;;;;13.14;80.15;100129.75;5020869;28;20494;-76
2021/05/25 03:33:37;;;;;;;4.30;2.60;;;;;;;13.13;80.26;100128.00;5023216;28;20026;-76
2021/05/25 03:36:02;;;;;;;3.50;2.20;;;;;;;13.18;79.64;100130.56;5023512;28;20481;-76
2021/05/25 03:38:27;;;;;;;4.55;2.45;;;;;;;13.18;79.95;100140.25;5022209;28;20034;-76
2021/05/25 03:40:53;;;;;;;4.28;2.50;;;;;;;13.07;81.15;100145.81;5024569;28;20037;-75
2021/05/25 03:43:18;;;;;;;3.72;2.45;;;;;;;13.08;80.29;100139.63;5023070;28;20160;-76
2021/05/25 03:45:43;;;;;;;4.65;2.20;;;;;;;13.06;80.15;100137.00;5022325;28;20044;-76
2021/05/25 03:48:09;;;;;;;5.50;2.88;;;;;;;13.04;80.61;100133.50;5024615;28;20045;-76
2021/05/25 03:50:34;;;;;;;4.30;2.03;;;;;;;13.02;80.55;100142.38;5022987;28;20036;-76
2021/05/25 03:53:00;;;;;;;4.43;2.65;;;;;;;13.05;79.95;100164.41;5022252;28;20049;-76
2021/05/25 04:00:45;;;;;;;4.45;1.88;;;;;;;13.05;77.80;100167.06;5022647;28;20040;-77
2021/05/25 04:03:10;;;;;;;4.28;1.40;;;;;;;13.02;75.87;100167.13;5022796;28;20404;-77
2021/05/25 04:05:36;;;;;;;3.83;1.30;;;;;;;13.05;74.84;100155.59;5021772;28;20163;-77
2021/05/25 04:08:02;;;;;;;4.60;1.73;;;;;;;13.04;74.79;100164.44;5022253;28;20049;-77
2021/05/25 04:10:28;;;;;;;3.67;1.05;;;;;;;13.09;73.69;100179.31;5024210;28;20041;-77
2021/05/25 04:12:53;;;;;;;2.90;1.20;;;;;;;13.05;72.88;100188.25;5022485;28;20121;-77
2021/05/25 04:15:19;;;;;;;4.13;1.27;;;;;;;13.05;72.93;100192.69;5020928;28;20087;-77
2021/05/25 04:17:45;;;;;;;5.25;1.33;;;;;;;13.04;72.52;100190.91;5031837;28;20065;-76
2021/05/25 04:20:11;;;;;;;3.47;1.10;;;;;;;13.02;71.43;100187.41;5025768;28;20105;-77
2021/05/25 04:22:37;;;;;;;3.95;1.30;;;;;;;12.90;72.15;100173.56;5028438;28;20022;-78
2021/05/25 04:25:04;;;;;;;3.30;0.93;;;;;;;12.88;70.86;100185.06;5027308;28;20056;-78
2021/05/25 04:27:30;;;;;;;2.28;1.02;;;;;;;12.81;70.88;100176.41;5026431;28;20033;-78
2021/05/25 04:29:55;;;;;;;2.08;0.90;;;;;;;12.80;71.00;100172.00;5029898;28;20399;-78
2021/05/25 04:32:21;;;;;;;1.70;0.75;;;;;;;12.76;70.67;100172.09;5027422;28;20038;-78
2021/05/25 04:34:46;;;;;;;2.55;1.00;;;;;;;12.75;70.06;100167.69;5024211;28;20052;-78
2021/05/25 04:37:12;;;;;;;3.75;1.13;;;;;;;12.71;69.75;100170.41;5024555;28;20037;-77
2021/05/25 04:39:37;;;;;;;3.63;1.20;;;;;;;12.71;69.60;100178.38;5021475;28;20471;-77
2021/05/25 04:42:03;;;;;;;2.17;0.60;;;;;;;12.72;69.19;100189.81;5022713;28;20048;-77
2021/05/25 04:44:28;;;;;;;7.53;1.42;;;;;;;12.65;69.05;100202.34;5023966;28;20090;-77
2021/05/25 04:46:53;;;;;;;3.63;0.80;;;;;;;12.66;69.20;100212.00;5021893;28;20511;-77
2021/05/25 04:49:19;;;;;;;3.08;1.00;;;;;;;12.72;69.16;100221.59;5022438;28;20043;-77
2021/05/25 04:51:44;;;;;;;3.63;1.15;;;;;;;12.78;68.71;100212.66;5022707;28;20044;-76
2021/05/25 04:54:09;;;;;;;3.17;1.40;;;;;;;12.81;68.90;100212.59;5020816;28;20492;-77
2021/05/25 04:56:35;;;;;;;3.58;1.10;;;;;;;13.03;67.55;100224.50;5023251;28;20569;-77
2021/05/25 04:59:01;;;;;;;4.50;1.63;;;;;;;13.23;66.57;100226.72;5045364;28;20427;-77
2021/05/25 05:01:28;;;;;;;7.57;3.78;;;;;;;13.30;65.66;100246.91;5030020;28;20041;-77
2021/05/25 05:03:54;;;;;;;11.95;1.85;;;;;;;13.15;64.74;100261.34;5030831;28;20472;-77
2021/05/25 05:06:19;;;;;;;3.88;1.60;;;;;;;13.07;64.87;100271.22;5020613;28;20049;-77
2021/05/25 05:08:45;;;;;;;3.50;1.30;;;;;;;13.03;64.08;100269.53;5022883;28;20484;-77
2021/05/25 05:11:10;;;;;;;2.47;1.02;;;;;;;12.97;63.71;100274.06;5021383;28;20033;-77
2021/05/25 05:13:36;;;;;;;5.32;2.00;;;;;;;12.97;64.54;100269.66;5021180;28;20062;-77
2021/05/25 05:16:01;;;;;;;6.25;2.50;;;;;;;13.00;63.96;100269.59;5022787;28;20040;-77
2021/05/25 05:18:27;;;;;;;2.08;0.90;;;;;;;12.98;63.26;100268.75;5021091;28;20404;-77
2021/05/25 05:20:52;;;;;;;2.85;0.95;;;;;;;13.03;63.99;100258.06;5021060;28;20025;-78
2021/05/25 05:23:17;;;;;;;2.70;1.00;;;;;;;13.02;63.77;100251.91;5023745;28;20116;-77
2021/05/25 05:25:43;;;;;;;4.38;1.17;;;;;;;12.96;62.85;100275.84;5030609;28;20033;-78
2021/05/25 05:28:08;;;;;;;1.42;0.45;;;;;;;12.95;63.40;100271.47;5024580;28;20045;-77
2021/05/25 05:30:35;;;;;;;2.38;0.82;;;;;;;12.86;63.54;100283.13;5023338;28;20040;-77
2021/05/25 05:33:00;;;;;;;2.42;0.70;;;;;;;12.78;63.99;100292.09;5021120;28;20484;-77
2021/05/25 05:35:26;;;;;;;3.10;0.60;;;;;;;12.78;64.11;100294.75;5022568;28;20049;-77
2021/05/25 05:37:51;;;;;;;1.60;0.60;;;;;;;12.88;64.59;100299.84;5019384;28;20038;-77
2021/05/25 05:40:17;;;;;;;1.95;0.60;;;;;;;12.84;63.23;100307.91;5022697;28;20037;-77
2021/05/25 05:42:42;;;;;;;1.63;0.60;;;;;;;12.78;63.77;100297.41;5022006;28;20033;-77
2021/05/25 05:45:08;;;;;;;2.58;0.73;;;;;;;12.72;63.93;100291.31;5020414;28;20072;-78
2021/05/25 05:47:33;;;;;;;4.30;0.77;;;;;;;12.69;64.02;100280.78;5021442;28;20160;-77
2021/05/25 05:49:59;;;;;;;3.58;0.88;;;;;;;12.75;63.77;100289.50;5026532;28;20053;-78
2021/05/25 05:52:24;;;;;;;2.53;0.63;;;;;;;12.80;63.81;100290.31;5030037;28;20651;-78
2021/05/25 05:54:50;;;;;;;2.75;0.60;;;;;;;12.76;63.14;100288.59;5029676;28;20034;-78
2021/05/25 05:57:15;;;;;;;3.65;0.60;;;;;;;12.90;62.77;100299.81;5027920;28;20039;-77
2021/05/25 05:59:40;;;;;;;2.30;0.70;;;;;;;12.89;62.97;100313.94;5024925;28;20385;-78
2021/05/25 06:02:06;;;;;;;3.10;0.70;;;;;;;12.88;62.73;100312.22;5026570;28;20515;-77
2021/05/25 06:04:31;;;;;;;3.38;0.77;;;;;;;12.87;62.22;100305.19;5022656;28;20132;-78
2021/05/25 06:06:56;;;;;;;3.85;0.80;;;;;;;12.93;61.37;100300.63;5021628;28;20042;-78
2021/05/25 06:09:22;;;;;;;2.28;0.80;;;;;;;13.04;61.28;100296.88;5023797;28;20538;-78
2021/05/25 06:11:52;;;;;;;1.83;0.43;;;;;;;13.14;61.03;100299.31;5022283;28;20048;-78
2021/05/25 06:14:18;;;;;;;2.45;0.80;;;;;;;13.23;60.68;100298.28;5021697;28;20116;-78
2021/05/25 06:16:43;;;;;;;3.40;0.65;;;;;;;13.40;60.28;100291.78;5023978;28;20034;-78
2021/05/25 06:19:09;;;;;;;1.35;0.57;;;;;;;13.43;60.32;100292.56;5026270;28;20613;-78
2021/05/25 06:21:34;;;;;;;1.17;0.50;;;;;;;13.43;59.71;100289.06;5026966;28;20116;-78
2021/05/25 06:24:00;;;;;;;2.72;0.50;;;;;;;13.31;59.84;100295.50;5028376;28;20116;-78
2021/05/25 06:26:25;;;;;;;1.70;0.50;;;;;;;13.30;59.60;100305.22;5028113;28;20041;-78
2021/05/25 06:28:51;;;;;;;2.70;0.60;;;;;;;13.27;59.66;100304.41;5025454;28;20088;-78
2021/05/25 06:31:16;;;;;;;2.45;0.77;;;;;;;13.33;59.57;100309.56;5028141;28;20030;-78
2021/05/25 06:33:41;;;;;;;2.03;0.60;;;;;;;13.26;59.62;100311.50;5026950;28;20112;-78
2021/05/25 06:36:07;;;;;;;4.22;0.50;;;;;;;13.32;59.77;100306.06;5023953;28;20038;-78
2021/05/25 06:38:32;;;;;;;3.95;0.60;;;;;;;13.26;60.01;100307.94;5026309;28;20376;-78
2021/05/25 06:40:58;;;;;;;2.30;1.08;;;;;;;13.15;60.04;100309.03;5031227;28;20037;-78
2021/05/25 06:43:23;;;;;;;3.05;0.70;;;;;;;13.04;59.68;100312.78;5028106;28;20040;-77
2021/05/25 06:45:48;;;;;;;3.78;0.80;;;;;;;13.02;59.50;100304.88;5030234;28;20125;-80
2021/05/25 06:48:14;;;;;;;1.55;0.43;;;;;;;13.14;58.99;100309.91;5031297;28;20038;-78
2021/05/25 06:50:39;;;;;;;2.60;0.60;;;;;;;13.20;58.79;100327.47;5026529;28;20041;-78
2021/05/25 06:53:05;;;;;;;4.80;0.85;;;;;;;13.09;58.15;100340.06;5022596;28;20411;-78
2021/05/25 06:55:31;;;;;;;2.88;0.50;;;;;;;13.10;57.19;100334.75;5025308;28;20091;-78
2021/05/25 06:57:57;;;;;;;3.00;0.90;;;;;;;13.09;57.66;100342.72;5032640;28;20037;-78
2021/05/25 07:00:23;;;;;;;3.13;1.10;;;;;;;13.18;57.53;100337.25;5026287;28;20091;-78
2021/05/25 07:02:48;;;;;;;2.65;0.57;;;;;;;13.14;56.93;100330.25;5024568;28;20042;-77
2021/05/25 07:05:14;;;;;;;1.60;0.50;;;;;;;12.95;56.57;100327.09;5023704;28;20045;-78
2021/05/25 07:07:39;;;;;;;3.28;0.60;;;;;;;12.97;56.68;100333.25;5026558;28;20458;-78
2021/05/25 07:10:05;;;;;;;2.47;0.68;;;;;;;13.10;56.67;100323.28;5024558;28;20065;-78
2021/05/25 07:12:31;;;;;;;2.38;0.75;;;;;;;13.07;57.07;100333.91;5023374;28;20079;-78
2021/05/25 07:14:56;;;;;;;3.35;0.77;;;;;;;13.27;55.97;100341.50;5025873;28;20037;-77
2021/05/25 07:17:21;;;;;;;3.40;0.70;;;;;;;13.27;55.86;100370.66;5024168;28;20042;-77
2021/05/25 07:19:47;;;;;;;4.22;0.80;;;;;;;13.31;56.13;100349.38;5022515;28;20034;-77
2021/05/25 07:22:12;;;;;;;3.13;0.65;;;;;;;13.48;55.59;100345.50;5025543;28;20044;-78
2021/05/25 07:24:38;;;;;;;2.97;0.70;;;;;;;13.48;55.24;100349.00;5024329;28;20519;-80
2021/05/25 07:27:03;;;;;;;3.45;0.80;;;;;;;13.45;55.98;100353.53;5025040;28;20069;-77
2021/05/25 07:29:29;;;;;;;2.13;0.60;;;;;;;13.56;55.44;100341.78;5025332;28;20026;-78
2021/05/25 07:31:54;;;;;;;6.88;2.25;;;;;;;13.28;53.76;100333.53;5023267;28;20034;-78
2021/05/25 07:34:20;;;;;;;4.78;1.10;;;;;;;13.32;54.72;100321.09;5023700;28;20029;-78
2021/05/25 07:36:47;;;;;;;2.40;0.73;;;;;;;13.27;53.08;100331.78;5025556;28;20034;-78
2021/05/25 07:39:12;;;;;;;4.85;1.58;;;;;;;13.36;54.30;100336.00;5030151;28;20084;-78
2021/05/25 07:41:38;;;;;;;3.90;0.52;;;;;;;13.41;53.21;100331.47;5023369;28;20073;-78
2021/05/25 07:44:04;;;;;;;3.45;0.80;;;;;;;13.48;53.41;100330.47;5032553;28;20038;-78
2021/05/25 07:46:30;;;;;;;2.65;0.50;;;;;;;13.68;53.10;100338.00;5024275;28;20091;-78
2021/05/25 07:48:55;;;;;;;2.25;0.68;;;;;;;13.88;51.76;100345.50;5048187;28;20060;-78
2021/05/25 07:51:21;;;;;;;4.15;0.80;;;;;;;14.02;51.25;100348.72;5026385;28;20041;-78
2021/05/25 07:53:47;;;;;;;3.55;0.57;;;;;;;14.20;49.71;100365.09;5023907;28;20049;-78
2021/05/25 07:56:12;;;;;;;1.20;0.50;;;;;;;14.25;50.61;100349.94;5023348;28;20038;-78
2021/05/25 07:58:38;;;;;;;3.72;0.90;;;;;;;14.09;50.83;100335.28;5025423;28;20033;-78
2021/05/25 08:01:04;;;;;;;2.78;0.70;;;;;;;14.01;50.24;100317.75;5044753;28;20065;-78
2021/05/25 08:03:30;;;;;;;3.17;0.60;;;;;;;14.05;50.54;100336.28;5026544;28;20044;-78
2021/05/25 08:05:57;;;;;;;2.17;0.60;;;;;;;14.11;49.80;100336.13;5023229;28;20037;-78
2021/05/25 08:08:23;;;;;;;3.03;0.50;;;;;;;13.99;48.99;100345.25;5026152;28;20117;-78
2021/05/25 08:10:48;;;;;;;1.60;0.63;;;;;;;14.37;50.00;100340.81;5022994;28;20516;-77
2021/05/25 08:13:14;;;;;;;2.03;0.50;;;;;;;14.55;49.78;100347.47;5032040;28;20044;-78
2021/05/25 08:15:41;;;;;;;2.25;0.88;;;;;;;14.59;49.27;100343.81;5023238;28;20049;-78
2021/05/25 08:18:17;;;;;;;2.20;0.73;;;;;;;14.55;48.19;100345.69;5024771;28;20029;-78
2021/05/25 08:20:44;;;;;;;3.55;0.93;;;;;;;14.55;47.75;100347.47;5026362;28;20091;-78
2021/05/25 08:23:11;;;;;;;3.20;0.80;;;;;;;14.75;48.41;100346.94;5023561;28;20038;-78
2021/05/25 08:25:37;;;;;;;1.77;0.60;;;;;;;14.80;46.73;100339.72;5028903;28;20037;-78
2021/05/25 08:28:05;;;;;;;4.75;1.15;;;;;;;14.99;47.71;100343.66;5028857;28;20727;-78
2021/05/25 08:30:32;;;;;;;3.80;0.60;;;;;;;14.94;46.52;100334.06;5027767;28;20048;-78
2021/05/25 08:32:57;;;;;;;4.13;0.80;;;;;;;14.98;47.42;100339.22;5025537;28;20365;-78
2021/05/25 08:35:25;;;;;;;2.35;0.57;;;;;;;15.10;47.73;100351.34;5024535;28;20051;-78
2021/05/25 08:37:59;;;;;;;3.63;0.85;;;;;;;14.89;48.13;100353.66;5020858;28;20040;-78
2021/05/25 08:40:27;;;;;;;3.95;0.60;;;;;;;14.79;46.45;100354.81;5021331;28;20038;-78
2021/05/25 08:42:52;;;;;;;3.40;0.70;;;;;;;14.59;46.71;100355.34;5023125;28;20168;-78
2021/05/25 08:45:18;;;;;;;1.60;0.50;;;;;;;14.80;47.26;100363.63;5022824;28;20041;-78
2021/05/25 08:47:45;;;;;;;3.03;0.60;;;;;;;14.89;46.15;100364.28;5021901;28;20041;-78
2021/05/25 08:50:13;;;;;;;2.45;0.52;;;;;;;14.76;45.51;100367.31;5029837;28;20029;-78
2021/05/25 08:52:39;;;;;;;2.85;0.60;;;;;;;14.59;47.61;100365.06;5022932;28;20207;-77
2021/05/25 08:55:07;;;;;;;3.20;0.60;;;;;;;14.77;48.26;100375.22;5020289;28;20034;-77
2021/05/25 08:57:33;;;;;;;1.50;0.57;;;;;;;15.14;48.28;100358.28;5023039;28;20045;-78
2021/05/25 08:59:58;;;;;;;4.00;0.90;;;;;;;15.29;45.31;100355.19;5045551;28;20040;-78
2021/05/25 09:02:24;;;;;;;2.33;0.70;;;;;;;15.25;46.44;100350.91;5023836;28;20064;-78
2021/05/25 09:05:00;;;;;;;1.38;0.40;;;;;;;15.63;46.40;100353.34;5042955;28;20049;-78
2021/05/25 09:07:34;;;;;;;2.65;0.90;;;;;;;15.65;45.09;100360.38;5024174;28;20385;-77
2021/05/25 09:10:00;;;;;;;1.85;0.47;;;;;;;15.59;44.83;100365.00;5022768;28;20041;-78
2021/05/25 09:12:32;;;;;;;1.55;0.60;;;;;;;15.44;45.78;100345.06;5019441;28;20044;-78
2021/05/25 09:14:58;;;;;;;2.00;0.63;;;;;;;15.64;45.30;100356.00;5021920;28;20048;-77
2021/05/25 09:17:27;;;;;;;1.30;0.40;;;;;;;15.92;45.43;100347.19;5023408;28;20122;-77
2021/05/25 09:19:54;;;;;;;1.83;0.50;;;;;;;15.80;44.95;100352.88;5021261;28;20044;-77
2021/05/25 09:22:24;;;;;;;2.70;0.63;;;;;;;15.82;45.03;100357.22;5020992;28;20052;-78
2021/05/25 09:24:49;;;;;;;2.25;0.80;;;;;;;15.88;45.28;100377.50;5023667;28;20033;-78
2021/05/25 09:27:29;;;;;;;3.97;0.50;;;;;;;15.84;44.29;100367.84;5022322;28;20026;-78
2021/05/25 09:30:12;;;;;;;2.85;0.82;;;;;;;15.84;44.79;100360.72;5023292;28;20038;-78
2021/05/25 09:32:43;;;;;;;2.13;0.60;;;;;;;15.88;44.70;100350.88;5021603;28;20600;-78
2021/05/25 09:35:09;;;;;;;1.98;0.70;;;;;;;16.13;44.82;100357.16;5020415;28;20125;-78
2021/05/25 09:37:46;;;;;;;2.33;0.60;;;;;;;16.39;43.72;100358.97;5022862;28;20123;-78
2021/05/25 09:40:13;;;;;;;4.30;0.70;;;;;;;16.26;43.20;100349.66;5045992;28;20026;-78
2021/05/25 09:42:38;;;;;;;1.90;0.40;;;;;;;15.95;43.99;100352.41;5022304;28;20072;-78
2021/05/25 09:45:09;;;;;;;2.72;0.50;;;;;;;15.86;43.63;100352.72;5022427;28;20110;-77
2021/05/25 09:47:52;;;;;;;2.05;0.40;;;;;;;15.55;42.86;100359.78;5023040;28;20108;-78
2021/05/25 09:50:18;;;;;;;;;;;;;;;15.42;42.53;100353.06;5023302;28;20059;-78
2021/05/25 09:53:00;;;;;;;1.92;0.57;;;;;;;15.53;43.04;100356.28;5021435;28;19924;-78
2021/05/25 09:55:26;;;;;;;1.85;0.50;;;;;;;15.56;43.58;100361.53;5043932;28;20037;-78
2021/05/25 09:57:57;;;;;;;1.73;0.57;;;;;;;15.55;43.36;100356.25;5020992;28;20030;-78
2021/05/25 10:00:28;;;;;;;2.70;0.63;;;;;;;15.75;42.54;100361.03;5021114;28;20057;-78
2021/05/25 10:03:12;;;;;;;8.10;0.60;;;;;;;16.06;41.56;100347.63;5027946;28;20113;-78
2021/05/25 10:05:39;;;;;;;1.80;0.50;;;;;;;16.31;42.00;100352.16;5026619;28;20069;-77
2021/05/25 10:08:05;;;;;;;2.53;0.40;;;;;;;16.40;41.72;100349.19;5026364;28;20068;-77
2021/05/25 10:10:33;;;;;;;0.90;0.40;;;;;;;16.32;41.36;100351.22;5023093;28;20056;-77
2021/05/25 10:12:59;;;;;;;0.82;0.40;;;;;;;16.13;41.36;100340.31;5019051;28;20065;-78
2021/05/25 10:15:26;;;;;;;5.32;0.63;;;;;;;16.15;42.15;100360.63;5023643;28;20114;-78
2021/05/25 10:18:09;;;;;;;1.80;0.50;;;;;;;16.27;41.34;100353.16;5023390;28;20036;-77
2021/05/25 10:20:35;;;;;;;2.58;0.50;;;;;;;15.97;41.11;100350.56;5022504;28;20045;-77
2021/05/25 10:23:00;;;;;;;1.48;0.40;;;;;;;15.87;41.47;100359.75;5044264;28;20407;-76
2021/05/25 10:25:31;;;;;;;2.72;0.60;;;;;;;15.60;42.51;100362.31;5026734;28;20041;-75
2021/05/25 10:27:57;;;;;;;3.70;1.40;;;;;;;15.89;42.63;100353.47;5029102;28;20098;-77
2021/05/25 10:30:25;;;;;;;2.53;0.68;;;;;;;16.26;43.80;100351.44;5022933;28;20479;-77
2021/05/25 10:33:12;;;;;;;3.25;0.80;;;;;;;16.52;40.60;100354.09;5030161;28;20135;-76
2021/05/25 10:35:46;;;;;;;1.55;0.50;;;;;;;16.58;38.78;100359.25;5030089;28;20041;-76
2021/05/25 10:38:12;;;;;;;1.60;0.40;;;;;;;16.47;40.63;100356.06;5026211;28;20488;-76
2021/05/25 10:40:45;;;;;;;1.50;0.40;;;;;;;16.18;39.51;100360.53;5027663;28;20057;-75
2021/05/25 10:43:44;;;;;;;0.80;0.40;;;;;;;16.33;39.82;100347.66;5025778;28;20038;-76
2021/05/25 10:46:10;;;;;;;1.83;0.50;;;;;;;16.61;40.34;100345.81;5029011;28;20045;-77
2021/05/25 10:49:24;;;;;;;2.13;0.68;;;;;;;16.68;40.10;100351.78;5028042;28;20610;-77
2021/05/25 10:51:49;;;;;;;2.25;0.40;;;;;;;16.73;40.26;100362.31;5025929;28;20123;-76
2021/05/25 10:54:25;;;;;;;3.17;0.50;;;;;;;16.43;39.40;100344.66;5028246;28;20034;-76
2021/05/25 10:56:51;;;;;;;2.50;0.55;;;;;;;16.41;39.25;100330.50;5023348;28;20029;-75
2021/05/25 10:59:19;;;;;;;2.10;0.30;;;;;;;16.41;39.08;100342.94;5042037;28;20500;-75
2021/05/25 11:01:44;;;;;;;2.17;0.30;;;;;;;16.32;39.32;100340.56;5017771;28;20108;-77
2021/05/25 11:04:11;;;;;;;1.13;0.30;;;;;;;16.45;40.31;100325.94;5021566;28;20033;-78
2021/05/25 11:06:38;;;;;;;2.80;0.40;;;;;;;16.48;39.53;100333.84;5028040;28;20065;-78
2021/05/25 11:09:26;;;;;;;1.80;0.52;;;;;;;16.27;38.71;100329.19;5025569;28;20096;-78
2021/05/25 11:12:10;;;;;;;1.15;0.30;;;;;;;16.78;39.01;100328.41;5045738;28;20121;-78
2021/05/25 11:14:36;;;;;;;2.35;0.50;;;;;;;17.19;39.00;100334.06;5035364;28;20060;-78
2021/05/25 11:17:30;;;;;;;1.65;0.50;;;;;;;17.62;37.65;100324.44;5029927;28;20411;-78
2021/05/25 11:20:09;;;;;;;1.48;0.52;;;;;;;17.94;37.16;100333.88;5032677;28;20625;-78
2021/05/25 11:22:36;;;;;;;0.98;0.40;;;;;;;17.73;36.54;100332.88;5030754;28;20041;-78
2021/05/25 11:25:05;;;;;;;2.08;0.57;;;;;;;17.63;36.84;100335.06;5032317;28;20557;-78
2021/05/25 11:27:34;;;;;;;1.35;0.40;;;;;;;16.93;37.36;100327.88;5028247;28;20033;-77
2021/05/25 11:30:07;;;;;;;1.92;0.50;;;;;;;17.14;38.61;100328.03;5026158;28;20046;-78